JBU999 KBOS-KPWM
Flight info
| Callsign | JBU999 |
|---|---|
| Flight time | 0h 36m |
| Altitude | 15000 |
| Route | LBSTA8 LBSTA SCOGS SCOGS3 |
| Aircraft | A20N/M-SDE2E3FGHIRWXY/LB1 |
Departure
| Time | 2026-05-08 01:46 |
|---|---|
| Airport | Boston Logan International Airport (KBOS) |
Arrival
| Time | 2026-05-08 02:22 |
|---|---|
| Airport | Portland International Jetport (KPWM) |
| Time | Latitude | Longitude | Altitude | Speed | Heading |
|---|---|---|---|---|---|
| 2026-05-08 01:19 | 42.36865 | -71.01509 | 25 ft | 0 kts | 228° |
| 2026-05-08 01:34 | 42.36869 | -71.01503 | 29 ft | 2 kts | 228° |
| 2026-05-08 01:35 | 42.36877 | -71.01492 | 29 ft | 2 kts | 228° |
| 2026-05-08 01:35 | 42.36887 | -71.01476 | 29 ft | 2 kts | 220° |
| 2026-05-08 01:35 | 42.36910 | -71.01457 | 31 ft | 3 kts | 189° |
| 2026-05-08 01:35 | 42.36933 | -71.01458 | 29 ft | 3 kts | 158° |
| 2026-05-08 01:36 | 42.36944 | -71.01466 | 31 ft | 0 kts | 141° |
| 2026-05-08 01:39 | 42.36922 | -71.01441 | 31 ft | 8 kts | 140° |
| 2026-05-08 01:39 | 42.36865 | -71.01371 | 25 ft | 14 kts | 128° |
| 2026-05-08 01:39 | 42.36781 | -71.01261 | 26 ft | 19 kts | 150° |
| 2026-05-08 01:39 | 42.36673 | -71.01261 | 26 ft | 16 kts | 185° |
| 2026-05-08 01:40 | 42.36557 | -71.01310 | 27 ft | 19 kts | 210° |
| 2026-05-08 01:40 | 42.36426 | -71.01394 | 26 ft | 23 kts | 204° |
| 2026-05-08 01:40 | 42.36375 | -71.01395 | 22 ft | 6 kts | 146° |
| 2026-05-08 01:40 | 42.36337 | -71.01316 | 23 ft | 14 kts | 121° |
| 2026-05-08 01:41 | 42.36280 | -71.01186 | 27 ft | 18 kts | 120° |
| 2026-05-08 01:41 | 42.36216 | -71.01010 | 26 ft | 23 kts | 115° |
| 2026-05-08 01:41 | 42.36159 | -71.00832 | 24 ft | 0 kts | 113° |
| 2026-05-08 01:42 | 42.36140 | -71.00772 | 24 ft | 16 kts | 113° |
| 2026-05-08 01:42 | 42.36090 | -71.00591 | 25 ft | 23 kts | 109° |
| 2026-05-08 01:42 | 42.36034 | -71.00370 | 28 ft | 26 kts | 109° |
| 2026-05-08 01:42 | 42.35969 | -71.00130 | 28 ft | 28 kts | 111° |
| 2026-05-08 01:43 | 42.35933 | -71.00046 | 28 ft | 9 kts | 133° |
| 2026-05-08 01:43 | 42.35854 | -70.99936 | 29 ft | 20 kts | 135° |
| 2026-05-08 01:43 | 42.35743 | -70.99791 | 27 ft | 25 kts | 136° |
| 2026-05-08 01:43 | 42.35607 | -70.99612 | 25 ft | 29 kts | 134° |
| 2026-05-08 01:44 | 42.35468 | -70.99410 | 27 ft | 12 kts | 110° |
| 2026-05-08 01:44 | 42.35484 | -70.99328 | 26 ft | 14 kts | 75° |
| 2026-05-08 01:44 | 42.35522 | -70.99251 | 29 ft | 7 kts | 357° |
| 2026-05-08 01:44 | 42.35533 | -70.99261 | 27 ft | 0 kts | 320° |
| 2026-05-08 01:45 | 42.35534 | -70.99261 | 27 ft | 0 kts | 320° |
| 2026-05-08 01:45 | 42.35539 | -70.99267 | 27 ft | 8 kts | 319° |
| 2026-05-08 01:45 | 42.35794 | -70.99603 | 27 ft | 94 kts | 315° |
| 2026-05-08 01:45 | 42.36419 | -71.00449 | 64 ft | 157 kts | 314° |
| 2026-05-08 01:46 | 42.37239 | -71.01555 | 692 ft | 165 kts | 315° |
| 2026-05-08 01:46 | 42.38049 | -71.02622 | 1687 ft | 162 kts | 313° |
| 2026-05-08 01:46 | 42.38744 | -71.03905 | 2371 ft | 177 kts | 300° |
| 2026-05-08 01:46 | 42.39388 | -71.05408 | 2925 ft | 196 kts | 300° |
| 2026-05-08 01:47 | 42.40099 | -71.07085 | 3359 ft | 216 kts | 299° |
| 2026-05-08 01:47 | 42.40903 | -71.08924 | 3810 ft | 237 kts | 306° |
| 2026-05-08 01:47 | 42.42207 | -71.10431 | 4334 ft | 258 kts | 333° |
| 2026-05-08 01:48 | 42.45621 | -71.12268 | 5669 ft | 269 kts | 338° |
| 2026-05-08 01:48 | 42.47375 | -71.13200 | 6418 ft | 272 kts | 338° |
| 2026-05-08 01:48 | 42.49174 | -71.14030 | 7171 ft | 275 kts | 351° |
| 2026-05-08 01:48 | 42.51088 | -71.13847 | 8025 ft | 279 kts | 18° |
| 2026-05-08 01:49 | 42.52741 | -71.12531 | 8872 ft | 283 kts | 44° |
| 2026-05-08 01:49 | 42.53999 | -71.10443 | 9733 ft | 287 kts | 54° |
| 2026-05-08 01:49 | 42.55144 | -71.08196 | 10588 ft | 291 kts | 56° |
| 2026-05-08 01:49 | 42.56289 | -71.05908 | 11442 ft | 295 kts | 55° |
| 2026-05-08 01:50 | 42.57473 | -71.03599 | 12298 ft | 299 kts | 54° |
| 2026-05-08 01:50 | 42.58672 | -71.01317 | 13143 ft | 302 kts | 54° |
| 2026-05-08 01:50 | 42.59909 | -70.98996 | 14006 ft | 306 kts | 54° |
| 2026-05-08 01:50 | 42.61182 | -70.96623 | 14738 ft | 311 kts | 54° |
| 2026-05-08 01:51 | 42.62465 | -70.94236 | 15048 ft | 314 kts | 54° |
| 2026-05-08 01:51 | 42.63758 | -70.91826 | 15158 ft | 314 kts | 54° |
| 2026-05-08 01:51 | 42.65033 | -70.89449 | 15174 ft | 314 kts | 54° |
| 2026-05-08 01:51 | 42.66328 | -70.87031 | 15175 ft | 325 kts | 54° |
| 2026-05-08 01:52 | 42.67734 | -70.84401 | 15178 ft | 362 kts | 54° |
| 2026-05-08 01:52 | 42.69312 | -70.81558 | 15172 ft | 384 kts | 48° |
| 2026-05-08 01:52 | 42.71290 | -70.79016 | 15176 ft | 406 kts | 41° |
| 2026-05-08 01:52 | 42.73472 | -70.76439 | 15173 ft | 420 kts | 40° |
| 2026-05-08 01:53 | 42.75706 | -70.73930 | 15173 ft | 421 kts | 39° |
| 2026-05-08 01:53 | 42.78002 | -70.71426 | 15171 ft | 421 kts | 38° |
| 2026-05-08 01:53 | 42.80301 | -70.68952 | 15168 ft | 421 kts | 38° |
| 2026-05-08 01:53 | 42.82571 | -70.66518 | 14992 ft | 403 kts | 38° |
| 2026-05-08 01:54 | 42.84694 | -70.64240 | 14643 ft | 385 kts | 38° |
| 2026-05-08 01:54 | 42.86783 | -70.61995 | 14122 ft | 378 kts | 38° |
| 2026-05-08 01:54 | 42.88854 | -70.59766 | 13509 ft | 377 kts | 38° |
| 2026-05-08 01:54 | 42.90909 | -70.57551 | 12640 ft | 372 kts | 38° |
| 2026-05-08 01:55 | 42.92893 | -70.55410 | 12008 ft | 368 kts | 38° |
| 2026-05-08 01:55 | 42.94909 | -70.53232 | 11598 ft | 368 kts | 38° |
| 2026-05-08 01:55 | 42.96903 | -70.51076 | 11318 ft | 363 kts | 38° |
| 2026-05-08 01:55 | 42.98884 | -70.48933 | 11237 ft | 364 kts | 38° |
| 2026-05-08 01:56 | 43.00871 | -70.46781 | 11228 ft | 364 kts | 38° |
| 2026-05-08 01:56 | 43.02856 | -70.44630 | 11229 ft | 364 kts | 38° |
| 2026-05-08 01:56 | 43.04842 | -70.42476 | 11229 ft | 364 kts | 38° |
| 2026-05-08 01:56 | 43.06829 | -70.40319 | 11229 ft | 364 kts | 38° |
| 2026-05-08 01:57 | 43.08798 | -70.38180 | 11139 ft | 353 kts | 38° |
| 2026-05-08 01:57 | 43.10648 | -70.36167 | 10954 ft | 334 kts | 38° |
| 2026-05-08 01:57 | 43.12435 | -70.34222 | 10630 ft | 327 kts | 38° |
| 2026-05-08 01:57 | 43.14226 | -70.32272 | 10435 ft | 327 kts | 38° |
| 2026-05-08 01:58 | 43.16008 | -70.30336 | 10227 ft | 325 kts | 37° |
| 2026-05-08 01:58 | 43.17867 | -70.28636 | 10029 ft | 324 kts | 32° |
| 2026-05-08 01:58 | 43.19770 | -70.26976 | 9828 ft | 323 kts | 32° |
| 2026-05-08 01:58 | 43.21666 | -70.25315 | 9620 ft | 322 kts | 32° |
| 2026-05-08 01:59 | 43.23553 | -70.23657 | 9427 ft | 321 kts | 32° |
| 2026-05-08 01:59 | 43.25434 | -70.22003 | 9227 ft | 320 kts | 32° |
| 2026-05-08 01:59 | 43.27307 | -70.20376 | 9029 ft | 314 kts | 32° |
| 2026-05-08 01:59 | 43.29100 | -70.18833 | 8826 ft | 302 kts | 32° |
| 2026-05-08 02:00 | 43.30836 | -70.17341 | 8620 ft | 285 kts | 32° |
| 2026-05-08 02:00 | 43.32524 | -70.15890 | 8424 ft | 286 kts | 31° |
| 2026-05-08 02:00 | 43.34227 | -70.14510 | 8221 ft | 282 kts | 29° |
| 2026-05-08 02:00 | 43.35933 | -70.13184 | 8021 ft | 282 kts | 29° |
| 2026-05-08 02:01 | 43.37622 | -70.11878 | 7821 ft | 281 kts | 29° |
| 2026-05-08 02:01 | 43.39321 | -70.10554 | 7616 ft | 280 kts | 29° |
| 2026-05-08 02:01 | 43.41012 | -70.09227 | 7150 ft | 279 kts | 29° |
| 2026-05-08 02:01 | 43.42705 | -70.07892 | 6399 ft | 282 kts | 29° |
| 2026-05-08 02:02 | 43.44401 | -70.06551 | 5838 ft | 277 kts | 30° |
| 2026-05-08 02:02 | 43.46033 | -70.05257 | 5480 ft | 264 kts | 30° |
| 2026-05-08 02:02 | 43.47595 | -70.04018 | 5131 ft | 254 kts | 30° |
| 2026-05-08 02:02 | 43.49080 | -70.02839 | 4781 ft | 245 kts | 30° |
| 2026-05-08 02:03 | 43.50529 | -70.01689 | 4429 ft | 235 kts | 29° |
| 2026-05-08 02:03 | 43.51918 | -70.00586 | 4080 ft | 226 kts | 29° |
| 2026-05-08 02:03 | 43.53263 | -69.99518 | 3734 ft | 219 kts | 29° |
| 2026-05-08 02:03 | 43.54548 | -69.98496 | 3443 ft | 208 kts | 29° |
| 2026-05-08 02:04 | 43.55764 | -69.97528 | 3253 ft | 194 kts | 29° |
| 2026-05-08 02:04 | 43.56932 | -69.96651 | 3224 ft | 190 kts | 19° |
| 2026-05-08 02:04 | 43.58192 | -69.96626 | 3233 ft | 181 kts | 339° |
| 2026-05-08 02:04 | 43.59144 | -69.97693 | 3232 ft | 182 kts | 303° |
| 2026-05-08 02:05 | 43.59824 | -69.99166 | 3235 ft | 182 kts | 302° |
| 2026-05-08 02:05 | 43.60509 | -70.00634 | 3233 ft | 182 kts | 302° |
| 2026-05-08 02:05 | 43.61202 | -70.02095 | 3232 ft | 182 kts | 303° |
| 2026-05-08 02:05 | 43.61901 | -70.03551 | 3232 ft | 182 kts | 303° |
| 2026-05-08 02:06 | 43.62497 | -70.05086 | 3234 ft | 182 kts | 290° |
| 2026-05-08 02:06 | 43.62804 | -70.06759 | 3228 ft | 182 kts | 279° |
| 2026-05-08 02:06 | 43.62960 | -70.08494 | 3228 ft | 182 kts | 275° |
| 2026-05-08 02:06 | 43.62789 | -70.10192 | 3236 ft | 182 kts | 243° |
| 2026-05-08 02:07 | 43.62119 | -70.11681 | 3221 ft | 184 kts | 250° |
| 2026-05-08 02:07 | 43.62111 | -70.13395 | 3233 ft | 182 kts | 290° |
| 2026-05-08 02:07 | 43.62910 | -70.14704 | 3233 ft | 183 kts | 330° |
| 2026-05-08 02:07 | 43.64127 | -70.14990 | 3232 ft | 184 kts | 10° |
| 2026-05-08 02:08 | 43.65223 | -70.14129 | 3235 ft | 185 kts | 44° |
| 2026-05-08 02:08 | 43.66129 | -70.12861 | 3231 ft | 185 kts | 45° |
| 2026-05-08 02:08 | 43.66981 | -70.11531 | 3233 ft | 185 kts | 53° |
| 2026-05-08 02:08 | 43.67716 | -70.10069 | 3235 ft | 185 kts | 55° |
| 2026-05-08 02:09 | 43.68405 | -70.08568 | 3233 ft | 185 kts | 63° |
| 2026-05-08 02:09 | 43.68947 | -70.06954 | 3230 ft | 185 kts | 68° |
| 2026-05-08 02:09 | 43.69055 | -70.05208 | 3235 ft | 185 kts | 102° |
| 2026-05-08 02:09 | 43.68731 | -70.03478 | 3233 ft | 185 kts | 105° |
| 2026-05-08 02:10 | 43.68397 | -70.01757 | 3235 ft | 185 kts | 105° |
| 2026-05-08 02:10 | 43.68054 | -70.00064 | 3230 ft | 185 kts | 111° |
| 2026-05-08 02:10 | 43.67232 | -69.98734 | 3232 ft | 185 kts | 152° |
| 2026-05-08 02:10 | 43.65991 | -69.98426 | 3238 ft | 184 kts | 184° |
| 2026-05-08 02:11 | 43.64816 | -69.99010 | 3232 ft | 182 kts | 221° |
| 2026-05-08 02:11 | 43.64206 | -70.00498 | 3232 ft | 181 kts | 262° |
| 2026-05-08 02:11 | 43.64453 | -70.02147 | 3232 ft | 182 kts | 302° |
| 2026-05-08 02:11 | 43.65435 | -70.03224 | 3235 ft | 183 kts | 334° |
| 2026-05-08 02:12 | 43.66647 | -70.03699 | 3234 ft | 183 kts | 2° |
| 2026-05-08 02:12 | 43.67824 | -70.03065 | 3236 ft | 185 kts | 36° |
| 2026-05-08 02:12 | 43.68555 | -70.01645 | 3232 ft | 185 kts | 76° |
| 2026-05-08 02:12 | 43.68468 | -69.99893 | 3223 ft | 186 kts | 112° |
| 2026-05-08 02:13 | 43.67703 | -69.98506 | 3229 ft | 185 kts | 140° |
| 2026-05-08 02:13 | 43.66548 | -69.97780 | 3232 ft | 185 kts | 165° |
| 2026-05-08 02:13 | 43.65299 | -69.97418 | 3228 ft | 183 kts | 181° |
| 2026-05-08 02:13 | 43.64057 | -69.97742 | 3225 ft | 182 kts | 210° |
| 2026-05-08 02:14 | 43.63243 | -69.99033 | 3224 ft | 182 kts | 251° |
| 2026-05-08 02:14 | 43.63258 | -70.00744 | 3234 ft | 181 kts | 291° |
| 2026-05-08 02:14 | 43.63894 | -70.02235 | 3228 ft | 182 kts | 317° |
| 2026-05-08 02:14 | 43.64947 | -70.03158 | 3223 ft | 183 kts | 341° |
| 2026-05-08 02:15 | 43.66201 | -70.03298 | 3237 ft | 184 kts | 12° |
| 2026-05-08 02:15 | 43.67343 | -70.02532 | 3232 ft | 185 kts | 46° |
| 2026-05-08 02:15 | 43.67996 | -70.01021 | 3227 ft | 185 kts | 78° |
| 2026-05-08 02:15 | 43.67838 | -69.99293 | 3228 ft | 185 kts | 119° |
| 2026-05-08 02:16 | 43.67109 | -69.97845 | 3224 ft | 185 kts | 127° |
| 2026-05-08 02:16 | 43.66334 | -69.96424 | 3228 ft | 185 kts | 133° |
| 2026-05-08 02:16 | 43.65230 | -69.95586 | 3226 ft | 184 kts | 173° |
| 2026-05-08 02:16 | 43.64010 | -69.95958 | 3226 ft | 182 kts | 214° |
| 2026-05-08 02:17 | 43.63290 | -69.97326 | 3223 ft | 172 kts | 257° |
| 2026-05-08 02:17 | 43.63319 | -69.98899 | 3233 ft | 167 kts | 281° |
| 2026-05-08 02:17 | 43.63481 | -70.00481 | 3236 ft | 166 kts | 276° |
| 2026-05-08 02:17 | 43.63547 | -70.02074 | 3230 ft | 166 kts | 272° |
| 2026-05-08 02:18 | 43.63567 | -70.03673 | 3233 ft | 166 kts | 271° |
| 2026-05-08 02:18 | 43.63570 | -70.05269 | 3229 ft | 166 kts | 270° |
| 2026-05-08 02:18 | 43.63572 | -70.06862 | 3229 ft | 166 kts | 270° |
| 2026-05-08 02:18 | 43.63575 | -70.08435 | 3229 ft | 166 kts | 270° |
| 2026-05-08 02:19 | 43.63523 | -70.10026 | 3235 ft | 166 kts | 262° |
| 2026-05-08 02:19 | 43.63351 | -70.11601 | 3232 ft | 166 kts | 264° |
| 2026-05-08 02:19 | 43.63343 | -70.13186 | 3217 ft | 165 kts | 273° |
| 2026-05-08 02:19 | 43.63426 | -70.14775 | 3094 ft | 165 kts | 275° |
| 2026-05-08 02:20 | 43.63509 | -70.16346 | 2843 ft | 165 kts | 275° |
| 2026-05-08 02:20 | 43.63598 | -70.17920 | 2506 ft | 163 kts | 275° |
| 2026-05-08 02:20 | 43.63701 | -70.19483 | 2295 ft | 163 kts | 276° |
| 2026-05-08 02:20 | 43.63808 | -70.21051 | 1925 ft | 162 kts | 275° |
| 2026-05-08 02:21 | 43.63914 | -70.22582 | 1459 ft | 161 kts | 275° |
| 2026-05-08 02:21 | 43.64010 | -70.24113 | 1064 ft | 160 kts | 275° |
| 2026-05-08 02:21 | 43.64107 | -70.25645 | 739 ft | 159 kts | 275° |
| 2026-05-08 02:21 | 43.64209 | -70.27172 | 473 ft | 159 kts | 275° |
| 2026-05-08 02:22 | 43.64313 | -70.28680 | 266 ft | 159 kts | 276° |
| 2026-05-08 02:22 | 43.64422 | -70.30196 | 125 ft | 158 kts | 275° |
| 2026-05-08 02:22 | 43.64526 | -70.31679 | 70 ft | 133 kts | 283° |
| 2026-05-08 02:22 | 43.64579 | -70.32313 | 82 ft | 39 kts | 271° |
| 2026-05-08 02:23 | 43.64634 | -70.32566 | 86 ft | 8 kts | 340° |
| 2026-05-08 02:23 | 43.64685 | -70.32504 | 83 ft | 12 kts | 76° |
| 2026-05-08 02:23 | 43.64684 | -70.32367 | 83 ft | 16 kts | 99° |
| 2026-05-08 02:23 | 43.64671 | -70.32195 | 82 ft | 21 kts | 94° |